Forestville, Canada
Current Conditions -  °F | °C
As of 6:00 AM on Wednesday 22 Oct 2014 (Local Time) from CYYY Reporting Station
Few Clouds Few Clouds  
Wind Chill: 27°   Ceiling: Unl
Heat Index: 27°   Visibility: 30mi
Dew Point: 23°   Wind: 3mph
Humidity: 86%   Direction: 130°SE
Pressure: 30.44"   Gusts: NA
Location:  48.73°N, 69.07°W
Report Text: CYYY 221000Z 13003KT 30SM FEW100 M03/M05 A3044 RMK AC1 SLP310
Loading
Personal Weather Stations






























Interactive Weather Map
Tropical Storm Tracking
New forecast layout! Learn more

10-Day Weather Forecast

Advertisements
Track Severe Weather on mobile